sensor_id;sensor_type;location;lat;lon;timestamp;P1;durP1;ratioP1;P2;durP2;ratioP2
1799;SDS011;919;48.274;12.292;2022-08-25T00:01:20;2.20;;;2.00;;
1799;SDS011;919;48.274;12.292;2022-08-25T00:03:49;3.70;;;2.70;;
1799;SDS011;919;48.274;12.292;2022-08-25T00:06:16;2.17;;;2.07;;
1799;SDS011;919;48.274;12.292;2022-08-25T00:08:45;2.00;;;1.90;;
1799;SDS011;919;48.274;12.292;2022-08-25T00:11:14;2.50;;;2.30;;
1799;SDS011;919;48.274;12.292;2022-08-25T00:13:43;2.47;;;2.20;;
1799;SDS011;919;48.274;12.292;2022-08-25T00:16:12;2.70;;;2.50;;
1799;SDS011;919;48.274;12.292;2022-08-25T00:18:44;2.70;;;2.50;;
1799;SDS011;919;48.274;12.292;2022-08-25T00:21:13;2.43;;;2.23;;
1799;SDS011;919;48.274;12.292;2022-08-25T00:23:41;2.10;;;1.90;;
1799;SDS011;919;48.274;12.292;2022-08-25T00:26:10;2.60;;;2.40;;
1799;SDS011;919;48.274;12.292;2022-08-25T00:28:38;2.23;;;2.03;;
1799;SDS011;919;48.274;12.292;2022-08-25T00:31:05;1.73;;;1.63;;
1799;SDS011;919;48.274;12.292;2022-08-25T00:33:35;2.47;;;2.27;;
1799;SDS011;919;48.274;12.292;2022-08-25T00:36:03;2.10;;;1.90;;
1799;SDS011;919;48.274;12.292;2022-08-25T00:38:30;2.70;;;2.50;;
1799;SDS011;919;48.274;12.292;2022-08-25T00:40:57;3.07;;;2.70;;
1799;SDS011;919;48.274;12.292;2022-08-25T00:43:35;5.00;;;2.73;;
1799;SDS011;919;48.274;12.292;2022-08-25T00:46:10;3.30;;;2.10;;
1799;SDS011;919;48.274;12.292;2022-08-25T00:48:38;2.00;;;1.83;;
1799;SDS011;919;48.274;12.292;2022-08-25T00:51:08;2.60;;;2.40;;
1799;SDS011;919;48.274;12.292;2022-08-25T00:53:39;2.00;;;1.90;;
1799;SDS011;919;48.274;12.292;2022-08-25T00:56:07;2.90;;;2.70;;
1799;SDS011;919;48.274;12.292;2022-08-25T00:58:35;3.00;;;2.63;;
1799;SDS011;919;48.274;12.292;2022-08-25T01:01:03;2.70;;;2.50;;
1799;SDS011;919;48.274;12.292;2022-08-25T01:03:30;2.57;;;2.37;;
1799;SDS011;919;48.274;12.292;2022-08-25T01:05:58;2.50;;;2.20;;
1799;SDS011;919;48.274;12.292;2022-08-25T01:08:27;1.97;;;1.87;;
1799;SDS011;919;48.274;12.292;2022-08-25T01:10:57;2.33;;;2.13;;
1799;SDS011;919;48.274;12.292;2022-08-25T01:13:28;2.93;;;2.10;;
1799;SDS011;919;48.274;12.292;2022-08-25T01:15:59;1.83;;;1.73;;
1799;SDS011;919;48.274;12.292;2022-08-25T01:18:27;2.53;;;2.33;;
1799;SDS011;919;48.274;12.292;2022-08-25T01:20:55;2.53;;;2.13;;
1799;SDS011;919;48.274;12.292;2022-08-25T01:23:23;2.40;;;2.20;;
1799;SDS011;919;48.274;12.292;2022-08-25T01:25:52;1.80;;;1.70;;
1799;SDS011;919;48.274;12.292;2022-08-25T01:28:26;2.03;;;1.93;;
1799;SDS011;919;48.274;12.292;2022-08-25T01:30:53;2.10;;;2.00;;
1799;SDS011;919;48.274;12.292;2022-08-25T01:33:20;2.03;;;1.83;;
1799;SDS011;919;48.274;12.292;2022-08-25T01:35:47;1.73;;;1.63;;
1799;SDS011;919;48.274;12.292;2022-08-25T01:38:16;1.90;;;1.80;;
1799;SDS011;919;48.274;12.292;2022-08-25T01:40:45;2.40;;;2.20;;
1799;SDS011;919;48.274;12.292;2022-08-25T01:43:16;2.13;;;1.93;;
1799;SDS011;919;48.274;12.292;2022-08-25T01:45:50;2.73;;;2.30;;
1799;SDS011;919;48.274;12.292;2022-08-25T01:48:17;2.43;;;1.93;;
1799;SDS011;919;48.274;12.292;2022-08-25T01:50:44;1.60;;;1.50;;
1799;SDS011;919;48.274;12.292;2022-08-25T01:53:11;2.03;;;1.93;;
1799;SDS011;919;48.274;12.292;2022-08-25T01:55:44;2.00;;;1.90;;
1799;SDS011;919;48.274;12.292;2022-08-25T01:58:19;1.83;;;1.73;;
1799;SDS011;919;48.274;12.292;2022-08-25T02:00:47;1.93;;;1.83;;
1799;SDS011;919;48.274;12.292;2022-08-25T02:03:16;2.27;;;2.07;;
1799;SDS011;919;48.274;12.292;2022-08-25T02:05:48;2.17;;;1.97;;
1799;SDS011;919;48.274;12.292;2022-08-25T02:08:15;6.03;;;2.73;;
1799;SDS011;919;48.274;12.292;2022-08-25T02:10:42;2.73;;;2.53;;
1799;SDS011;919;48.274;12.292;2022-08-25T02:13:12;2.00;;;1.90;;
1799;SDS011;919;48.274;12.292;2022-08-25T02:15:39;3.53;;;2.23;;
1799;SDS011;919;48.274;12.292;2022-08-25T02:18:07;3.27;;;2.30;;
1799;SDS011;919;48.274;12.292;2022-08-25T02:20:34;2.50;;;2.30;;
1799;SDS011;919;48.274;12.292;2022-08-25T02:23:02;3.00;;;2.70;;
1799;SDS011;919;48.274;12.292;2022-08-25T02:25:29;3.87;;;3.10;;
1799;SDS011;919;48.274;12.292;2022-08-25T02:27:59;2.73;;;2.53;;
1799;SDS011;919;48.274;12.292;2022-08-25T02:30:26;2.50;;;2.30;;
1799;SDS011;919;48.274;12.292;2022-08-25T02:32:53;2.40;;;2.20;;
1799;SDS011;919;48.274;12.292;2022-08-25T02:35:22;2.87;;;2.60;;
1799;SDS011;919;48.274;12.292;2022-08-25T02:37:52;2.77;;;2.53;;
1799;SDS011;919;48.274;12.292;2022-08-25T02:40:19;2.67;;;2.30;;
1799;SDS011;919;48.274;12.292;2022-08-25T02:42:46;2.93;;;2.70;;
1799;SDS011;919;48.274;12.292;2022-08-25T02:45:15;2.80;;;2.50;;
1799;SDS011;919;48.274;12.292;2022-08-25T02:47:42;3.97;;;3.27;;
1799;SDS011;919;48.274;12.292;2022-08-25T02:50:10;4.23;;;3.93;;
1799;SDS011;919;48.274;12.292;2022-08-25T02:52:38;3.67;;;3.33;;
1799;SDS011;919;48.274;12.292;2022-08-25T02:55:06;3.53;;;3.23;;
1799;SDS011;919;48.274;12.292;2022-08-25T02:57:34;4.07;;;3.57;;
1799;SDS011;919;48.274;12.292;2022-08-25T03:00:02;3.27;;;2.97;;
1799;SDS011;919;48.274;12.292;2022-08-25T03:02:32;2.83;;;2.60;;
1799;SDS011;919;48.274;12.292;2022-08-25T03:04:59;4.10;;;2.60;;
1799;SDS011;919;48.274;12.292;2022-08-25T03:07:26;3.13;;;2.67;;
1799;SDS011;919;48.274;12.292;2022-08-25T03:09:55;6.10;;;3.47;;
1799;SDS011;919;48.274;12.292;2022-08-25T03:12:22;6.10;;;3.50;;
1799;SDS011;919;48.274;12.292;2022-08-25T03:14:49;3.37;;;3.07;;
1799;SDS011;919;48.274;12.292;2022-08-25T03:17:16;3.53;;;3.23;;
1799;SDS011;919;48.274;12.292;2022-08-25T03:19:44;3.17;;;2.87;;
1799;SDS011;919;48.274;12.292;2022-08-25T03:22:10;2.97;;;2.70;;
1799;SDS011;919;48.274;12.292;2022-08-25T03:27:38;3.70;;;3.40;;
1799;SDS011;919;48.274;12.292;2022-08-25T03:30:19;2.27;;;2.07;;
1799;SDS011;919;48.274;12.292;2022-08-25T03:32:46;2.67;;;2.17;;
1799;SDS011;919;48.274;12.292;2022-08-25T03:35:14;2.77;;;2.50;;
1799;SDS011;919;48.274;12.292;2022-08-25T03:37:41;3.27;;;2.97;;
1799;SDS011;919;48.274;12.292;2022-08-25T03:43:00;2.90;;;2.70;;
1799;SDS011;919;48.274;12.292;2022-08-25T03:45:27;2.20;;;2.10;;
1799;SDS011;919;48.274;12.292;2022-08-25T03:47:55;2.60;;;2.40;;
1799;SDS011;919;48.274;12.292;2022-08-25T03:50:43;1.97;;;1.87;;
1799;SDS011;919;48.274;12.292;2022-08-25T03:56:10;4.33;;;1.70;;
1799;SDS011;919;48.274;12.292;2022-08-25T03:58:37;1.57;;;1.47;;
1799;SDS011;919;48.274;12.292;2022-08-25T04:01:04;1.70;;;1.60;;
1799;SDS011;919;48.274;12.292;2022-08-25T04:03:31;1.67;;;1.57;;
1799;SDS011;919;48.274;12.292;2022-08-25T04:06:00;3.30;;;3.00;;
1799;SDS011;919;48.274;12.292;2022-08-25T04:08:28;6.03;;;2.47;;
1799;SDS011;919;48.274;12.292;2022-08-25T04:10:55;2.30;;;2.10;;
1799;SDS011;919;48.274;12.292;2022-08-25T04:13:22;2.40;;;2.20;;
1799;SDS011;919;48.274;12.292;2022-08-25T04:15:49;2.50;;;2.10;;
1799;SDS011;919;48.274;12.292;2022-08-25T04:18:16;1.87;;;1.73;;
1799;SDS011;919;48.274;12.292;2022-08-25T04:20:43;2.43;;;2.00;;
1799;SDS011;919;48.274;12.292;2022-08-25T04:23:12;2.90;;;2.60;;
1799;SDS011;919;48.274;12.292;2022-08-25T04:25:39;2.33;;;2.23;;
1799;SDS011;919;48.274;12.292;2022-08-25T04:28:07;1.40;;;1.33;;
1799;SDS011;919;48.274;12.292;2022-08-25T04:30:34;1.80;;;1.70;;
1799;SDS011;919;48.274;12.292;2022-08-25T04:33:01;1.20;;;1.10;;
1799;SDS011;919;48.274;12.292;2022-08-25T04:35:27;1.40;;;1.20;;
1799;SDS011;919;48.274;12.292;2022-08-25T04:37:54;2.90;;;1.30;;
1799;SDS011;919;48.274;12.292;2022-08-25T04:40:22;2.30;;;2.20;;
1799;SDS011;919;48.274;12.292;2022-08-25T04:42:50;1.77;;;1.67;;
1799;SDS011;919;48.274;12.292;2022-08-25T04:45:16;2.00;;;1.60;;
1799;SDS011;919;48.274;12.292;2022-08-25T04:47:43;1.53;;;1.43;;
1799;SDS011;919;48.274;12.292;2022-08-25T04:50:10;1.53;;;1.43;;
1799;SDS011;919;48.274;12.292;2022-08-25T04:52:37;2.10;;;1.93;;
1799;SDS011;919;48.274;12.292;2022-08-25T04:55:04;2.60;;;2.40;;
1799;SDS011;919;48.274;12.292;2022-08-25T04:57:32;1.40;;;1.30;;
1799;SDS011;919;48.274;12.292;2022-08-25T04:59:59;1.63;;;1.53;;
1799;SDS011;919;48.274;12.292;2022-08-25T05:02:27;2.17;;;1.97;;
1799;SDS011;919;48.274;12.292;2022-08-25T05:04:54;1.27;;;1.17;;
1799;SDS011;919;48.274;12.292;2022-08-25T05:07:21;1.60;;;1.50;;
1799;SDS011;919;48.274;12.292;2022-08-25T05:09:48;1.50;;;1.40;;
1799;SDS011;919;48.274;12.292;2022-08-25T05:12:15;1.33;;;1.23;;
1799;SDS011;919;48.274;12.292;2022-08-25T05:14:43;1.80;;;1.70;;
1799;SDS011;919;48.274;12.292;2022-08-25T05:17:10;1.73;;;1.63;;
1799;SDS011;919;48.274;12.292;2022-08-25T05:19:36;2.00;;;1.80;;
1799;SDS011;919;48.274;12.292;2022-08-25T05:22:03;1.93;;;1.83;;
1799;SDS011;919;48.274;12.292;2022-08-25T05:24:31;1.70;;;1.60;;
1799;SDS011;919;48.274;12.292;2022-08-25T05:26:58;2.60;;;2.40;;
1799;SDS011;919;48.274;12.292;2022-08-25T05:29:25;1.73;;;1.63;;
1799;SDS011;919;48.274;12.292;2022-08-25T05:31:53;2.27;;;2.17;;
1799;SDS011;919;48.274;12.292;2022-08-25T05:34:20;3.10;;;2.80;;
1799;SDS011;919;48.274;12.292;2022-08-25T05:36:47;3.43;;;3.13;;
1799;SDS011;919;48.274;12.292;2022-08-25T05:39:15;3.47;;;3.20;;
1799;SDS011;919;48.274;12.292;2022-08-25T05:41:42;4.23;;;3.83;;
1799;SDS011;919;48.274;12.292;2022-08-25T05:44:09;4.00;;;3.50;;
1799;SDS011;919;48.274;12.292;2022-08-25T05:46:36;3.60;;;3.27;;
1799;SDS011;919;48.274;12.292;2022-08-25T05:49:04;3.57;;;3.27;;
1799;SDS011;919;48.274;12.292;2022-08-25T05:51:31;3.40;;;3.10;;
1799;SDS011;919;48.274;12.292;2022-08-25T05:53:58;3.57;;;3.27;;
1799;SDS011;919;48.274;12.292;2022-08-25T05:56:24;4.27;;;3.13;;
1799;SDS011;919;48.274;12.292;2022-08-25T05:58:51;3.37;;;3.00;;
1799;SDS011;919;48.274;12.292;2022-08-25T06:01:20;4.63;;;3.90;;
1799;SDS011;919;48.274;12.292;2022-08-25T06:04:07;4.57;;;4.17;;
1799;SDS011;919;48.274;12.292;2022-08-25T06:06:35;5.40;;;4.90;;
1799;SDS011;919;48.274;12.292;2022-08-25T06:09:02;5.80;;;5.07;;
1799;SDS011;919;48.274;12.292;2022-08-25T06:11:32;5.83;;;5.03;;
1799;SDS011;919;48.274;12.292;2022-08-25T06:14:00;5.83;;;5.23;;
1799;SDS011;919;48.274;12.292;2022-08-25T06:16:27;6.20;;;5.60;;
1799;SDS011;919;48.274;12.292;2022-08-25T06:18:54;6.40;;;5.70;;
1799;SDS011;919;48.274;12.292;2022-08-25T06:21:23;7.43;;;6.63;;
1799;SDS011;919;48.274;12.292;2022-08-25T06:23:49;7.20;;;6.20;;
1799;SDS011;919;48.274;12.292;2022-08-25T06:26:16;10.60;;;8.37;;
1799;SDS011;919;48.274;12.292;2022-08-25T06:28:43;8.80;;;6.63;;
1799;SDS011;919;48.274;12.292;2022-08-25T06:31:09;10.00;;;8.97;;
1799;SDS011;919;48.274;12.292;2022-08-25T06:33:36;9.80;;;7.53;;
1799;SDS011;919;48.274;12.292;2022-08-25T06:36:03;7.83;;;7.10;;
1799;SDS011;919;48.274;12.292;2022-08-25T06:38:32;9.17;;;8.03;;
1799;SDS011;919;48.274;12.292;2022-08-25T06:41:00;8.87;;;6.90;;
1799;SDS011;919;48.274;12.292;2022-08-25T06:43:28;10.30;;;8.50;;
1799;SDS011;919;48.274;12.292;2022-08-25T06:45:54;9.43;;;8.30;;
1799;SDS011;919;48.274;12.292;2022-08-25T06:48:21;8.97;;;7.50;;
1799;SDS011;919;48.274;12.292;2022-08-25T06:50:48;10.07;;;8.00;;
1799;SDS011;919;48.274;12.292;2022-08-25T06:53:15;11.37;;;9.70;;
1799;SDS011;919;48.274;12.292;2022-08-25T06:55:43;11.97;;;9.80;;
1799;SDS011;919;48.274;12.292;2022-08-25T06:58:10;12.97;;;10.47;;
1799;SDS011;919;48.274;12.292;2022-08-25T07:00:37;11.57;;;9.40;;
1799;SDS011;919;48.274;12.292;2022-08-25T07:03:04;9.80;;;8.80;;
1799;SDS011;919;48.274;12.292;2022-08-25T07:05:30;10.27;;;8.87;;
1799;SDS011;919;48.274;12.292;2022-08-25T07:07:57;10.13;;;9.13;;
1799;SDS011;919;48.274;12.292;2022-08-25T07:10:24;10.93;;;9.23;;
1799;SDS011;919;48.274;12.292;2022-08-25T07:12:52;12.73;;;10.87;;
1799;SDS011;919;48.274;12.292;2022-08-25T07:15:19;10.70;;;9.40;;
1799;SDS011;919;48.274;12.292;2022-08-25T07:17:46;13.23;;;10.77;;
1799;SDS011;919;48.274;12.292;2022-08-25T07:20:13;17.40;;;12.03;;
1799;SDS011;919;48.274;12.292;2022-08-25T07:22:41;15.90;;;12.10;;
1799;SDS011;919;48.274;12.292;2022-08-25T07:25:08;18.70;;;16.17;;
1799;SDS011;919;48.274;12.292;2022-08-25T07:27:36;13.93;;;12.43;;
1799;SDS011;919;48.274;12.292;2022-08-25T07:30:06;13.57;;;11.67;;
1799;SDS011;919;48.274;12.292;2022-08-25T07:32:33;15.00;;;11.10;;
1799;SDS011;919;48.274;12.292;2022-08-25T07:35:00;14.33;;;10.70;;
1799;SDS011;919;48.274;12.292;2022-08-25T07:37:41;13.40;;;11.50;;
1799;SDS011;919;48.274;12.292;2022-08-25T07:40:10;14.50;;;11.07;;
1799;SDS011;919;48.274;12.292;2022-08-25T07:42:39;12.67;;;10.30;;
1799;SDS011;919;48.274;12.292;2022-08-25T07:45:08;10.83;;;9.23;;
1799;SDS011;919;48.274;12.292;2022-08-25T07:47:36;12.87;;;9.47;;
1799;SDS011;919;48.274;12.292;2022-08-25T07:50:04;10.97;;;9.20;;
1799;SDS011;919;48.274;12.292;2022-08-25T07:52:32;11.20;;;8.70;;
1799;SDS011;919;48.274;12.292;2022-08-25T07:54:58;10.13;;;9.13;;
1799;SDS011;919;48.274;12.292;2022-08-25T07:57:25;11.30;;;10.10;;
1799;SDS011;919;48.274;12.292;2022-08-25T07:59:53;14.40;;;9.50;;
1799;SDS011;919;48.274;12.292;2022-08-25T08:02:21;11.80;;;9.20;;
1799;SDS011;919;48.274;12.292;2022-08-25T08:04:49;11.43;;;9.50;;
1799;SDS011;919;48.274;12.292;2022-08-25T08:07:17;10.80;;;8.93;;
1799;SDS011;919;48.274;12.292;2022-08-25T08:09:45;13.40;;;10.10;;
1799;SDS011;919;48.274;12.292;2022-08-25T08:12:12;11.40;;;9.70;;
1799;SDS011;919;48.274;12.292;2022-08-25T08:14:39;16.63;;;9.87;;
1799;SDS011;919;48.274;12.292;2022-08-25T08:17:07;12.40;;;9.70;;
1799;SDS011;919;48.274;12.292;2022-08-25T08:19:36;12.00;;;10.13;;
1799;SDS011;919;48.274;12.292;2022-08-25T08:22:03;11.00;;;9.60;;
1799;SDS011;919;48.274;12.292;2022-08-25T08:24:31;9.70;;;8.70;;
1799;SDS011;919;48.274;12.292;2022-08-25T08:27:03;10.10;;;9.00;;
1799;SDS011;919;48.274;12.292;2022-08-25T08:29:30;10.43;;;9.37;;
1799;SDS011;919;48.274;12.292;2022-08-25T08:31:57;10.43;;;9.03;;
1799;SDS011;919;48.274;12.292;2022-08-25T08:34:24;10.60;;;9.10;;
1799;SDS011;919;48.274;12.292;2022-08-25T08:36:52;10.40;;;9.23;;
1799;SDS011;919;48.274;12.292;2022-08-25T08:39:19;11.17;;;10.00;;
1799;SDS011;919;48.274;12.292;2022-08-25T08:41:55;8.83;;;8.00;;
1799;SDS011;919;48.274;12.292;2022-08-25T08:44:53;11.33;;;9.60;;
1799;SDS011;919;48.274;12.292;2022-08-25T08:47:32;15.63;;;10.53;;
1799;SDS011;919;48.274;12.292;2022-08-25T08:50:10;12.00;;;10.50;;
1799;SDS011;919;48.274;12.292;2022-08-25T08:52:46;15.47;;;10.40;;
1799;SDS011;919;48.274;12.292;2022-08-25T08:55:34;18.30;;;10.80;;
1799;SDS011;919;48.274;12.292;2022-08-25T08:58:04;15.10;;;10.10;;
1799;SDS011;919;48.274;12.292;2022-08-25T09:00:36;11.43;;;10.30;;
1799;SDS011;919;48.274;12.292;2022-08-25T09:03:07;14.10;;;10.30;;
1799;SDS011;919;48.274;12.292;2022-08-25T09:05:39;17.30;;;11.80;;
1799;SDS011;919;48.274;12.292;2022-08-25T09:08:12;12.47;;;10.03;;
1799;SDS011;919;48.274;12.292;2022-08-25T09:10:44;25.40;;;10.70;;
1799;SDS011;919;48.274;12.292;2022-08-25T09:13:24;17.57;;;11.97;;
1799;SDS011;919;48.274;12.292;2022-08-25T09:16:01;13.93;;;11.60;;
1799;SDS011;919;48.274;12.292;2022-08-25T09:18:50;13.83;;;10.50;;
1799;SDS011;919;48.274;12.292;2022-08-25T09:21:28;11.80;;;9.60;;
1799;SDS011;919;48.274;12.292;2022-08-25T09:24:19;14.30;;;11.47;;
1799;SDS011;919;48.274;12.292;2022-08-25T09:26:59;16.63;;;12.27;;
1799;SDS011;919;48.274;12.292;2022-08-25T09:29:38;14.20;;;10.13;;
1799;SDS011;919;48.274;12.292;2022-08-25T09:32:13;14.03;;;11.83;;
1799;SDS011;919;48.274;12.292;2022-08-25T09:34:42;17.33;;;11.30;;
1799;SDS011;919;48.274;12.292;2022-08-25T09:37:09;19.50;;;12.57;;
1799;SDS011;919;48.274;12.292;2022-08-25T09:39:37;14.50;;;10.70;;
1799;SDS011;919;48.274;12.292;2022-08-25T09:42:06;17.03;;;12.47;;
1799;SDS011;919;48.274;12.292;2022-08-25T09:44:33;14.43;;;10.70;;
1799;SDS011;919;48.274;12.292;2022-08-25T09:47:12;14.60;;;9.80;;
1799;SDS011;919;48.274;12.292;2022-08-25T09:49:46;13.23;;;10.73;;
1799;SDS011;919;48.274;12.292;2022-08-25T09:52:16;17.57;;;11.40;;
1799;SDS011;919;48.274;12.292;2022-08-25T09:54:51;18.33;;;11.07;;
1799;SDS011;919;48.274;12.292;2022-08-25T09:57:32;12.20;;;10.53;;
1799;SDS011;919;48.274;12.292;2022-08-25T10:00:11;14.73;;;10.70;;
1799;SDS011;919;48.274;12.292;2022-08-25T10:02:40;11.60;;;10.40;;
1799;SDS011;919;48.274;12.292;2022-08-25T10:05:21;11.43;;;10.23;;
1799;SDS011;919;48.274;12.292;2022-08-25T10:07:52;10.37;;;9.37;;
1799;SDS011;919;48.274;12.292;2022-08-25T10:10:26;10.57;;;9.47;;
1799;SDS011;919;48.274;12.292;2022-08-25T10:12:55;11.63;;;10.00;;
1799;SDS011;919;48.274;12.292;2022-08-25T10:15:27;14.77;;;10.90;;
1799;SDS011;919;48.274;12.292;2022-08-25T10:18:15;13.30;;;10.60;;
1799;SDS011;919;48.274;12.292;2022-08-25T10:23:44;11.30;;;10.03;;
1799;SDS011;919;48.274;12.292;2022-08-25T10:30:44;11.87;;;9.90;;
1799;SDS011;919;48.274;12.292;2022-08-25T10:33:25;16.57;;;10.63;;
1799;SDS011;919;48.274;12.292;2022-08-25T10:35:58;14.50;;;10.27;;
1799;SDS011;919;48.274;12.292;2022-08-25T10:38:35;13.47;;;9.77;;
1799;SDS011;919;48.274;12.292;2022-08-25T10:41:08;13.00;;;10.07;;
1799;SDS011;919;48.274;12.292;2022-08-25T10:43:58;18.43;;;11.03;;
1799;SDS011;919;48.274;12.292;2022-08-25T10:46:58;16.77;;;9.50;;
1799;SDS011;919;48.274;12.292;2022-08-25T10:49:34;11.57;;;10.30;;
1799;SDS011;919;48.274;12.292;2022-08-25T10:52:08;11.80;;;10.30;;
1799;SDS011;919;48.274;12.292;2022-08-25T10:54:41;14.67;;;10.20;;
1799;SDS011;919;48.274;12.292;2022-08-25T11:00:37;13.10;;;9.40;;
1799;SDS011;919;48.274;12.292;2022-08-25T11:03:15;12.97;;;9.00;;
1799;SDS011;919;48.274;12.292;2022-08-25T11:05:50;11.33;;;9.00;;
1799;SDS011;919;48.274;12.292;2022-08-25T11:08:21;13.53;;;9.43;;
1799;SDS011;919;48.274;12.292;2022-08-25T11:10:58;18.33;;;9.30;;
1799;SDS011;919;48.274;12.292;2022-08-25T11:13:32;16.70;;;9.70;;
1799;SDS011;919;48.274;12.292;2022-08-25T11:16:08;15.20;;;9.50;;
1799;SDS011;919;48.274;12.292;2022-08-25T11:18:43;16.87;;;9.10;;
1799;SDS011;919;48.274;12.292;2022-08-25T11:21:16;13.20;;;8.77;;
1799;SDS011;919;48.274;12.292;2022-08-25T11:23:49;13.60;;;8.93;;
1799;SDS011;919;48.274;12.292;2022-08-25T11:26:21;11.60;;;9.40;;
1799;SDS011;919;48.274;12.292;2022-08-25T11:28:56;16.37;;;10.40;;
1799;SDS011;919;48.274;12.292;2022-08-25T11:31:27;13.97;;;10.33;;
1799;SDS011;919;48.274;12.292;2022-08-25T11:33:56;11.77;;;8.63;;
1799;SDS011;919;48.274;12.292;2022-08-25T11:36:26;23.47;;;10.77;;
1799;SDS011;919;48.274;12.292;2022-08-25T11:38:59;9.23;;;8.20;;
1799;SDS011;919;48.274;12.292;2022-08-25T11:41:36;16.40;;;8.93;;
1799;SDS011;919;48.274;12.292;2022-08-25T11:44:17;12.30;;;9.07;;
1799;SDS011;919;48.274;12.292;2022-08-25T11:47:03;11.50;;;9.60;;
1799;SDS011;919;48.274;12.292;2022-08-25T11:49:47;12.00;;;8.43;;
1799;SDS011;919;48.274;12.292;2022-08-25T11:55:19;16.17;;;9.40;;
1799;SDS011;919;48.274;12.292;2022-08-25T11:57:52;15.40;;;8.67;;
1799;SDS011;919;48.274;12.292;2022-08-25T12:00:47;14.83;;;8.97;;
1799;SDS011;919;48.274;12.292;2022-08-25T12:06:21;15.13;;;8.50;;
1799;SDS011;919;48.274;12.292;2022-08-25T12:08:52;12.17;;;8.53;;
1799;SDS011;919;48.274;12.292;2022-08-25T12:11:44;12.43;;;8.83;;
1799;SDS011;919;48.274;12.292;2022-08-25T12:14:31;11.00;;;8.80;;
1799;SDS011;919;48.274;12.292;2022-08-25T12:17:15;13.40;;;9.40;;
1799;SDS011;919;48.274;12.292;2022-08-25T12:19:49;11.03;;;8.20;;
1799;SDS011;919;48.274;12.292;2022-08-25T12:25:24;15.57;;;9.00;;
1799;SDS011;919;48.274;12.292;2022-08-25T12:28:13;14.57;;;9.20;;
1799;SDS011;919;48.274;12.292;2022-08-25T12:30:57;13.37;;;8.77;;
1799;SDS011;919;48.274;12.292;2022-08-25T12:33:31;13.20;;;8.70;;
1799;SDS011;919;48.274;12.292;2022-08-25T12:36:08;12.77;;;9.90;;
1799;SDS011;919;48.274;12.292;2022-08-25T12:38:39;10.37;;;9.33;;
1799;SDS011;919;48.274;12.292;2022-08-25T12:41:09;10.40;;;8.17;;
1799;SDS011;919;48.274;12.292;2022-08-25T12:43:39;13.50;;;9.00;;
1799;SDS011;919;48.274;12.292;2022-08-25T12:49:01;9.70;;;8.20;;
1799;SDS011;919;48.274;12.292;2022-08-25T12:51:42;14.70;;;9.40;;
1799;SDS011;919;48.274;12.292;2022-08-25T12:54:19;12.80;;;8.90;;
1799;SDS011;919;48.274;12.292;2022-08-25T12:56:52;12.93;;;9.67;;
1799;SDS011;919;48.274;12.292;2022-08-25T12:59:23;14.83;;;9.47;;
1799;SDS011;919;48.274;12.292;2022-08-25T13:02:03;19.77;;;9.20;;
1799;SDS011;919;48.274;12.292;2022-08-25T13:04:52;10.53;;;6.83;;
1799;SDS011;919;48.274;12.292;2022-08-25T13:07:32;13.50;;;7.67;;
1799;SDS011;919;48.274;12.292;2022-08-25T13:10:21;9.27;;;7.80;;
1799;SDS011;919;48.274;12.292;2022-08-25T13:12:56;13.60;;;8.00;;
1799;SDS011;919;48.274;12.292;2022-08-25T13:15:31;13.10;;;7.30;;
1799;SDS011;919;48.274;12.292;2022-08-25T13:18:19;14.07;;;7.47;;
1799;SDS011;919;48.274;12.292;2022-08-25T13:20:49;14.93;;;7.40;;
1799;SDS011;919;48.274;12.292;2022-08-25T13:23:22;11.00;;;8.27;;
1799;SDS011;919;48.274;12.292;2022-08-25T13:25:54;12.53;;;8.40;;
1799;SDS011;919;48.274;12.292;2022-08-25T13:28:24;10.03;;;7.83;;
1799;SDS011;919;48.274;12.292;2022-08-25T13:33:48;14.60;;;7.60;;
1799;SDS011;919;48.274;12.292;2022-08-25T13:36:16;15.67;;;8.40;;
1799;SDS011;919;48.274;12.292;2022-08-25T13:39:09;8.80;;;6.60;;
1799;SDS011;919;48.274;12.292;2022-08-25T13:41:38;11.10;;;7.53;;
1799;SDS011;919;48.274;12.292;2022-08-25T13:44:10;10.87;;;6.57;;
1799;SDS011;919;48.274;12.292;2022-08-25T13:46:38;11.57;;;6.97;;
1799;SDS011;919;48.274;12.292;2022-08-25T13:49:05;9.33;;;7.10;;
1799;SDS011;919;48.274;12.292;2022-08-25T13:51:33;8.17;;;6.83;;
1799;SDS011;919;48.274;12.292;2022-08-25T13:54:01;17.37;;;8.07;;
1799;SDS011;919;48.274;12.292;2022-08-25T13:56:31;12.13;;;9.30;;
1799;SDS011;919;48.274;12.292;2022-08-25T13:59:01;15.43;;;8.20;;
1799;SDS011;919;48.274;12.292;2022-08-25T14:01:30;17.27;;;8.40;;
1799;SDS011;919;48.274;12.292;2022-08-25T14:07:03;10.97;;;7.20;;
1799;SDS011;919;48.274;12.292;2022-08-25T14:09:39;8.87;;;7.70;;
1799;SDS011;919;48.274;12.292;2022-08-25T14:12:24;9.50;;;8.00;;
1799;SDS011;919;48.274;12.292;2022-08-25T14:14:58;8.37;;;7.57;;
1799;SDS011;919;48.274;12.292;2022-08-25T14:17:27;12.80;;;7.17;;
1799;SDS011;919;48.274;12.292;2022-08-25T14:19:54;8.60;;;7.70;;
1799;SDS011;919;48.274;12.292;2022-08-25T14:22:21;8.40;;;7.03;;
1799;SDS011;919;48.274;12.292;2022-08-25T14:24:50;9.30;;;7.80;;
1799;SDS011;919;48.274;12.292;2022-08-25T14:27:18;9.37;;;7.10;;
1799;SDS011;919;48.274;12.292;2022-08-25T14:29:45;8.50;;;7.50;;
1799;SDS011;919;48.274;12.292;2022-08-25T14:32:14;9.17;;;7.47;;
1799;SDS011;919;48.274;12.292;2022-08-25T14:34:42;13.80;;;7.43;;
1799;SDS011;919;48.274;12.292;2022-08-25T14:37:10;10.60;;;6.40;;
1799;SDS011;919;48.274;12.292;2022-08-25T14:39:39;11.00;;;8.20;;
1799;SDS011;919;48.274;12.292;2022-08-25T14:42:06;11.60;;;7.73;;
1799;SDS011;919;48.274;12.292;2022-08-25T14:44:33;9.77;;;6.73;;
1799;SDS011;919;48.274;12.292;2022-08-25T14:47:00;12.47;;;7.50;;
1799;SDS011;919;48.274;12.292;2022-08-25T14:49:29;8.83;;;7.93;;
1799;SDS011;919;48.274;12.292;2022-08-25T14:52:00;12.13;;;7.90;;
1799;SDS011;919;48.274;12.292;2022-08-25T14:54:33;9.93;;;7.23;;
1799;SDS011;919;48.274;12.292;2022-08-25T14:57:00;12.73;;;7.53;;
1799;SDS011;919;48.274;12.292;2022-08-25T14:59:27;12.20;;;6.53;;
1799;SDS011;919;48.274;12.292;2022-08-25T15:01:54;10.80;;;7.83;;
1799;SDS011;919;48.274;12.292;2022-08-25T15:04:22;10.10;;;7.33;;
1799;SDS011;919;48.274;12.292;2022-08-25T15:06:54;12.40;;;7.73;;
1799;SDS011;919;48.274;12.292;2022-08-25T15:09:23;9.73;;;7.80;;
1799;SDS011;919;48.274;12.292;2022-08-25T15:11:50;11.70;;;8.40;;
1799;SDS011;919;48.274;12.292;2022-08-25T15:14:19;12.23;;;8.07;;
1799;SDS011;919;48.274;12.292;2022-08-25T15:16:48;14.17;;;7.37;;
1799;SDS011;919;48.274;12.292;2022-08-25T15:19:17;8.03;;;7.23;;
1799;SDS011;919;48.274;12.292;2022-08-25T15:21:47;8.93;;;6.80;;
1799;SDS011;919;48.274;12.292;2022-08-25T15:24:17;8.40;;;6.30;;
1799;SDS011;919;48.274;12.292;2022-08-25T15:26:45;9.30;;;7.17;;
1799;SDS011;919;48.274;12.292;2022-08-25T15:29:14;9.40;;;7.40;;
1799;SDS011;919;48.274;12.292;2022-08-25T15:31:41;9.83;;;7.10;;
1799;SDS011;919;48.274;12.292;2022-08-25T15:34:08;8.90;;;6.90;;
1799;SDS011;919;48.274;12.292;2022-08-25T15:36:35;8.03;;;7.33;;
1799;SDS011;919;48.274;12.292;2022-08-25T15:39:03;10.80;;;6.33;;
1799;SDS011;919;48.274;12.292;2022-08-25T15:41:32;11.13;;;7.97;;
1799;SDS011;919;48.274;12.292;2022-08-25T15:44:01;9.67;;;6.37;;
1799;SDS011;919;48.274;12.292;2022-08-25T15:46:28;7.33;;;6.63;;
1799;SDS011;919;48.274;12.292;2022-08-25T15:48:55;7.40;;;6.70;;
1799;SDS011;919;48.274;12.292;2022-08-25T15:51:23;6.97;;;6.27;;
1799;SDS011;919;48.274;12.292;2022-08-25T15:53:50;10.10;;;6.53;;
1799;SDS011;919;48.274;12.292;2022-08-25T15:56:17;7.03;;;6.33;;
1799;SDS011;919;48.274;12.292;2022-08-25T15:58:46;8.97;;;7.07;;
1799;SDS011;919;48.274;12.292;2022-08-25T16:01:13;12.43;;;5.93;;
1799;SDS011;919;48.274;12.292;2022-08-25T16:03:41;6.03;;;5.50;;
1799;SDS011;919;48.274;12.292;2022-08-25T16:06:08;8.80;;;6.23;;